createdAt,value
2019-05-16T00:00:29.045Z,17.05
2019-05-16T00:06:31.217Z,17.12
2019-05-16T00:12:33.426Z,17.77
2019-05-16T00:18:38.822Z,17.85
2019-05-16T00:24:41.300Z,17.67
2019-05-16T00:30:44.699Z,16.05
2019-05-16T00:36:48.661Z,18.62
2019-05-16T00:42:50.810Z,18.48
2019-05-16T00:48:53.222Z,18.90
2019-05-16T00:54:57.964Z,18.37
2019-05-16T01:01:00.275Z,15.55
2019-05-16T01:07:02.450Z,13.83
2019-05-16T01:13:04.790Z,12.80
2019-05-16T01:19:09.145Z,12.88
2019-05-16T01:25:11.508Z,10.48
2019-05-16T01:31:13.756Z,12.50
2019-05-16T01:37:16.079Z,11.55
2019-05-16T01:43:18.549Z,11.00
2019-05-16T01:49:20.878Z,13.08
2019-05-16T01:55:25.115Z,14.13
2019-05-16T02:01:28.837Z,14.20
2019-05-16T02:07:31.157Z,14.05
2019-05-16T02:13:33.611Z,14.35
2019-05-16T02:19:35.888Z,15.85
2019-05-16T02:25:40.822Z,15.55
2019-05-16T02:31:42.453Z,14.13
2019-05-16T02:37:46.697Z,15.00
2019-05-16T02:43:50.803Z,13.28
2019-05-16T02:49:54.004Z,13.88
2019-05-16T02:55:56.171Z,12.70
2019-05-16T03:02:00.928Z,11.60
2019-05-16T03:08:03.724Z,14.75
2019-05-16T03:14:05.968Z,12.45
2019-05-16T03:20:10.860Z,14.80
2019-05-16T03:26:13.704Z,13.40
2019-05-16T03:32:15.853Z,15.20
2019-05-16T03:38:20.950Z,15.15
2019-05-16T03:44:22.239Z,12.33
2019-05-16T03:50:25.663Z,12.00
2019-05-16T03:56:30.622Z,10.98
2019-05-16T04:02:31.934Z,13.00
2019-05-16T04:08:34.122Z,11.28
2019-05-16T04:14:40.609Z,10.82
2019-05-16T04:20:41.468Z,12.73
2019-05-16T04:26:51.616Z,12.05
2019-05-16T04:32:53.649Z,12.37
2019-05-16T04:38:55.807Z,11.08
2019-05-16T04:45:01.002Z,11.35
2019-05-16T04:51:02.345Z,10.98
2019-05-16T04:57:04.680Z,11.90
2019-05-16T05:03:15.892Z,12.75
2019-05-16T05:09:20.729Z,9.15
2019-05-16T05:15:22.587Z,10.65
2019-05-16T05:21:25.025Z,11.43
2019-05-16T05:27:27.299Z,9.63
2019-05-16T05:33:30.395Z,11.35
2019-05-16T05:39:32.709Z,11.93
2019-05-16T05:45:35.007Z,11.38
2019-05-16T05:51:37.459Z,11.10
2019-05-16T05:57:40.528Z,10.28
2019-05-16T06:03:42.867Z,11.63
2019-05-16T06:09:53.612Z,12.98
2019-05-16T06:15:50.932Z,11.35
2019-05-16T06:21:53.544Z,14.38
2019-05-16T06:27:56.045Z,13.20
2019-05-16T06:34:06.841Z,15.03
2019-05-16T06:40:02.782Z,15.00
2019-05-16T06:46:05.396Z,15.95
2019-05-16T06:52:10.439Z,13.72
2019-05-16T06:58:13.899Z,17.25
2019-05-16T07:04:16.078Z,15.20
2019-05-16T07:10:20.345Z,19.27
2019-05-16T07:16:22.475Z,19.70
2019-05-16T07:22:25.130Z,15.93
2019-05-16T07:28:29.874Z,16.17
2019-05-16T07:34:31.369Z,17.42
2019-05-16T07:40:33.489Z,14.83
2019-05-16T07:46:35.821Z,12.65
2019-05-16T07:52:40.240Z,10.45
2019-05-16T07:58:42.482Z,6.28
2019-05-16T08:04:44.715Z,5.83
2019-05-16T08:10:47.024Z,4.53
2019-05-16T08:16:50.168Z,4.50
2019-05-16T08:22:52.485Z,4.08
2019-05-16T08:28:55.156Z,3.10
2019-05-16T08:35:00.827Z,3.42
2019-05-16T08:41:11.520Z,3.25
2019-05-16T08:47:06.500Z,2.90
2019-05-16T08:53:12.877Z,2.27
2019-05-16T08:59:13.654Z,2.05
2019-05-16T09:05:16.059Z,1.92
2019-05-16T09:11:31.455Z,1.77
2019-05-16T09:17:41.819Z,2.22
2019-05-16T09:23:46.712Z,2.08
2019-05-16T09:29:48.180Z,1.90
2019-05-16T09:35:50.366Z,1.95
2019-05-16T09:41:55.559Z,1.72
2019-05-16T09:47:57.488Z,1.20
2019-05-16T09:54:00.025Z,2.05
2019-05-16T10:00:02.649Z,1.50
2019-05-16T10:06:07.715Z,1.70
2019-05-16T10:12:15.233Z,0.95
2019-05-16T10:18:13.560Z,1.30
2019-05-16T10:24:16.092Z,1.30
2019-05-16T10:30:18.451Z,1.47
2019-05-16T10:36:21.555Z,1.40
2019-05-16T10:42:28.764Z,1.65
2019-05-16T10:48:28.463Z,1.22
2019-05-16T10:54:30.887Z,1.50
2019-05-16T11:00:57.573Z,1.40
2019-05-16T11:06:37.656Z,1.32
2019-05-16T11:12:50.341Z,1.50
2019-05-16T11:18:44.563Z,1.30
2019-05-16T11:24:47.223Z,1.50
2019-05-16T11:30:49.940Z,1.42
2019-05-16T11:36:52.280Z,1.47
2019-05-16T11:43:18.249Z,1.50
2019-05-16T11:49:19.409Z,1.32
2019-05-16T11:55:22.713Z,1.65
2019-05-16T12:01:27.538Z,1.42
2019-05-16T12:07:33.895Z,1.60
2019-05-16T12:13:33.677Z,2.20
2019-05-16T12:19:43.416Z,2.45
2019-05-16T12:25:40.284Z,2.80
2019-05-16T12:31:55.273Z,2.35
2019-05-16T12:37:48.122Z,2.40
2019-05-16T12:43:53.394Z,3.00
2019-05-16T12:49:56.627Z,3.17
2019-05-16T12:55:59.088Z,3.25
2019-05-16T13:02:02.613Z,2.70
2019-05-16T13:08:04.954Z,2.60
2019-05-16T13:14:11.056Z,1.92
2019-05-16T13:20:12.312Z,2.60
2019-05-16T13:26:14.673Z,2.58
2019-05-16T13:32:17.644Z,2.22
2019-05-16T13:38:20.283Z,4.60
2019-05-16T13:44:23.225Z,3.83
2019-05-16T13:50:27.313Z,3.95
2019-05-16T13:56:29.791Z,3.55
2019-05-16T14:02:32.215Z,3.62
2019-05-16T14:08:37.372Z,3.30
2019-05-16T14:14:42.448Z,3.33
2019-05-16T14:20:46.461Z,3.60
2019-05-16T14:26:48.135Z,3.40
2019-05-16T14:32:50.994Z,3.30
2019-05-16T14:38:53.529Z,3.62
2019-05-16T14:45:06.527Z,2.60
2019-05-16T14:50:59.991Z,2.65
2019-05-16T14:57:06.513Z,2.20
2019-05-16T15:03:09.870Z,2.45
2019-05-16T15:09:12.266Z,2.40
2019-05-16T15:15:21.078Z,2.02
2019-05-16T15:21:19.576Z,1.80
2019-05-16T15:27:23.195Z,1.98
2019-05-16T15:33:27.356Z,1.67
2019-05-16T15:39:30.996Z,2.08
2019-05-16T15:45:43.066Z,1.65
2019-05-16T15:51:43.523Z,1.95
2019-05-16T15:57:47.547Z,2.00
2019-05-16T16:03:49.841Z,1.80
2019-05-16T16:09:52.101Z,1.57
2019-05-16T16:15:54.754Z,1.50
2019-05-16T16:22:00.111Z,1.57
2019-05-16T16:28:02.651Z,1.60
2019-05-16T16:34:12.910Z,1.80
2019-05-16T16:40:17.583Z,1.80
2019-05-16T16:46:19.746Z,1.95
2019-05-16T16:52:22.019Z,2.12
2019-05-16T16:58:26.422Z,1.40
2019-05-16T17:04:28.486Z,1.70
2019-05-16T17:10:30.857Z,1.32
2019-05-16T17:16:33.348Z,2.65
2019-05-16T17:22:37.370Z,27.73
2019-05-16T17:28:53.751Z,4.37
2019-05-16T17:34:56.127Z,1.90
2019-05-16T17:40:58.346Z,2.98
2019-05-16T17:47:00.554Z,1.90
2019-05-16T17:53:02.777Z,1.50
2019-05-16T17:59:07.104Z,1.67
2019-05-16T18:05:21.157Z,4.05
2019-05-16T18:11:23.480Z,2.98
2019-05-16T18:17:26.957Z,3.17
2019-05-16T18:23:29.334Z,4.00
2019-05-16T18:29:31.774Z,5.87
2019-05-16T18:35:36.716Z,6.83
2019-05-16T18:41:38.665Z,10.38
2019-05-16T18:47:41.954Z,5.25
2019-05-16T18:53:46.382Z,5.45
2019-05-16T18:59:48.416Z,64.47
2019-05-16T19:05:50.720Z,126.62
2019-05-16T19:11:53.048Z,29.92
2019-05-16T19:17:58.503Z,5.20
2019-05-16T19:23:59.455Z,17.92
2019-05-16T19:30:02.477Z,6.47
2019-05-16T19:36:07.096Z,3.50
2019-05-16T19:42:08.972Z,3.52
2019-05-16T19:48:13.988Z,3.45
2019-05-16T19:54:16.474Z,3.35
2019-05-16T20:00:19.381Z,2.92
2019-05-16T20:06:22.927Z,3.42
2019-05-16T20:12:26.310Z,3.50
2019-05-16T20:18:28.720Z,3.92
2019-05-16T20:24:31.063Z,4.28
2019-05-16T20:30:36.901Z,3.27
2019-05-16T20:36:39.001Z,3.40
2019-05-16T20:42:43.815Z,3.75
2019-05-16T20:48:46.376Z,4.15
2019-05-16T20:54:49.841Z,4.10
2019-05-16T21:00:52.255Z,3.33
2019-05-16T21:07:03.782Z,4.37
2019-05-16T21:12:58.901Z,4.10
2019-05-16T21:19:01.641Z,4.75
2019-05-16T21:25:03.888Z,4.92
2019-05-16T21:31:09.247Z,5.22
2019-05-16T21:37:17.135Z,5.60
2019-05-16T21:43:16.945Z,5.50
2019-05-16T21:49:19.765Z,5.15
2019-05-16T21:55:21.867Z,5.20
2019-05-16T22:01:26.605Z,5.22
2019-05-16T22:07:33.585Z,4.70
2019-05-16T22:13:36.596Z,5.22
2019-05-16T22:19:38.507Z,5.53
2019-05-16T22:25:40.671Z,5.55
2019-05-16T22:31:47.044Z,5.45
2019-05-16T22:37:55.575Z,6.12
2019-05-16T22:43:54.736Z,4.60
2019-05-16T22:49:57.013Z,5.30
2019-05-16T22:55:59.276Z,5.55
2019-05-16T23:02:01.433Z,5.95
2019-05-16T23:08:07.276Z,5.90
2019-05-16T23:14:07.788Z,5.45
2019-05-16T23:20:10.518Z,6.00
2019-05-16T23:26:12.672Z,6.05
2019-05-16T23:32:17.053Z,6.22
2019-05-16T23:38:20.226Z,5.65
2019-05-16T23:44:22.501Z,6.72
2019-05-16T23:50:27.359Z,6.37
2019-05-16T23:56:28.962Z,5.90
